sensor_id;sensor_type;location;lat;lon;timestamp;P1;durP1;ratioP1;P2;durP2;ratioP2
946;SDS011;460;48.734;9.152;2023-04-28T00:01:15;3.77;;;2.57;;
946;SDS011;460;48.734;9.152;2023-04-28T00:03:42;2.30;;;2.10;;
946;SDS011;460;48.734;9.152;2023-04-28T00:06:09;3.27;;;2.97;;
946;SDS011;460;48.734;9.152;2023-04-28T00:08:36;3.40;;;3.03;;
946;SDS011;460;48.734;9.152;2023-04-28T00:11:03;1.83;;;1.73;;
946;SDS011;460;48.734;9.152;2023-04-28T00:13:35;3.50;;;3.20;;
946;SDS011;460;48.734;9.152;2023-04-28T00:16:02;2.30;;;2.10;;
946;SDS011;460;48.734;9.152;2023-04-28T00:18:29;5.00;;;3.73;;
946;SDS011;460;48.734;9.152;2023-04-28T00:20:57;2.47;;;2.27;;
946;SDS011;460;48.734;9.152;2023-04-28T00:23:24;9.60;;;2.17;;
946;SDS011;460;48.734;9.152;2023-04-28T00:25:51;2.10;;;1.90;;
946;SDS011;460;48.734;9.152;2023-04-28T00:28:18;3.40;;;3.10;;
946;SDS011;460;48.734;9.152;2023-04-28T00:30:46;3.70;;;2.77;;
946;SDS011;460;48.734;9.152;2023-04-28T00:33:13;2.90;;;2.10;;
946;SDS011;460;48.734;9.152;2023-04-28T00:35:39;5.90;;;3.17;;
946;SDS011;460;48.734;9.152;2023-04-28T00:38:06;2.80;;;2.33;;
946;SDS011;460;48.734;9.152;2023-04-28T00:40:33;2.60;;;1.87;;
946;SDS011;460;48.734;9.152;2023-04-28T00:43:00;5.30;;;2.03;;
946;SDS011;460;48.734;9.152;2023-04-28T00:45:27;1.90;;;1.80;;
946;SDS011;460;48.734;9.152;2023-04-28T00:47:56;1.57;;;1.47;;
946;SDS011;460;48.734;9.152;2023-04-28T00:50:23;2.10;;;1.90;;
946;SDS011;460;48.734;9.152;2023-04-28T00:52:51;3.13;;;2.27;;
946;SDS011;460;48.734;9.152;2023-04-28T00:55:18;2.97;;;2.53;;
946;SDS011;460;48.734;9.152;2023-04-28T00:57:45;2.40;;;2.20;;
946;SDS011;460;48.734;9.152;2023-04-28T01:00:12;8.33;;;3.37;;
946;SDS011;460;48.734;9.152;2023-04-28T01:02:41;3.20;;;2.90;;
946;SDS011;460;48.734;9.152;2023-04-28T01:05:09;3.43;;;3.13;;
946;SDS011;460;48.734;9.152;2023-04-28T01:07:36;3.17;;;2.70;;
946;SDS011;460;48.734;9.152;2023-04-28T01:10:03;2.73;;;2.50;;
946;SDS011;460;48.734;9.152;2023-04-28T01:12:31;2.33;;;2.20;;
946;SDS011;460;48.734;9.152;2023-04-28T01:14:58;6.00;;;2.70;;
946;SDS011;460;48.734;9.152;2023-04-28T01:17:25;2.50;;;2.20;;
946;SDS011;460;48.734;9.152;2023-04-28T01:19:52;3.53;;;3.03;;
946;SDS011;460;48.734;9.152;2023-04-28T01:22:21;3.70;;;2.40;;
946;SDS011;460;48.734;9.152;2023-04-28T01:24:49;3.13;;;2.93;;
946;SDS011;460;48.734;9.152;2023-04-28T01:27:16;3.77;;;2.47;;
946;SDS011;460;48.734;9.152;2023-04-28T01:29:42;3.63;;;3.23;;
946;SDS011;460;48.734;9.152;2023-04-28T01:32:10;2.93;;;2.43;;
946;SDS011;460;48.734;9.152;2023-04-28T01:34:36;3.13;;;2.60;;
946;SDS011;460;48.734;9.152;2023-04-28T01:37:03;5.00;;;3.50;;
946;SDS011;460;48.734;9.152;2023-04-28T01:39:30;3.53;;;2.27;;
946;SDS011;460;48.734;9.152;2023-04-28T01:41:58;3.93;;;2.87;;
946;SDS011;460;48.734;9.152;2023-04-28T01:44:26;2.43;;;2.33;;
946;SDS011;460;48.734;9.152;2023-04-28T01:46:53;2.90;;;2.33;;
946;SDS011;460;48.734;9.152;2023-04-28T01:49:20;2.10;;;1.73;;
946;SDS011;460;48.734;9.152;2023-04-28T01:51:46;3.20;;;2.60;;
946;SDS011;460;48.734;9.152;2023-04-28T01:54:13;2.87;;;2.57;;
946;SDS011;460;48.734;9.152;2023-04-28T01:59:44;1.73;;;1.63;;
946;SDS011;460;48.734;9.152;2023-04-28T02:02:11;2.47;;;2.27;;
946;SDS011;460;48.734;9.152;2023-04-28T02:04:38;3.53;;;1.80;;
946;SDS011;460;48.734;9.152;2023-04-28T02:07:05;5.20;;;2.80;;
946;SDS011;460;48.734;9.152;2023-04-28T02:09:32;2.47;;;2.07;;
946;SDS011;460;48.734;9.152;2023-04-28T02:11:59;3.80;;;1.90;;
946;SDS011;460;48.734;9.152;2023-04-28T02:14:28;2.67;;;2.47;;
946;SDS011;460;48.734;9.152;2023-04-28T02:16:56;2.27;;;1.63;;
946;SDS011;460;48.734;9.152;2023-04-28T02:19:24;1.93;;;1.77;;
946;SDS011;460;48.734;9.152;2023-04-28T02:21:51;1.83;;;1.73;;
946;SDS011;460;48.734;9.152;2023-04-28T02:24:19;1.60;;;1.50;;
946;SDS011;460;48.734;9.152;2023-04-28T02:26:46;2.10;;;1.90;;
946;SDS011;460;48.734;9.152;2023-04-28T02:29:13;1.93;;;1.83;;
946;SDS011;460;48.734;9.152;2023-04-28T02:31:42;1.90;;;1.77;;
946;SDS011;460;48.734;9.152;2023-04-28T02:34:10;3.40;;;2.30;;
946;SDS011;460;48.734;9.152;2023-04-28T02:36:38;3.60;;;2.27;;
946;SDS011;460;48.734;9.152;2023-04-28T02:39:05;2.60;;;2.40;;
946;SDS011;460;48.734;9.152;2023-04-28T02:41:31;2.70;;;2.10;;
946;SDS011;460;48.734;9.152;2023-04-28T02:43:58;4.23;;;3.10;;
946;SDS011;460;48.734;9.152;2023-04-28T02:46:25;3.17;;;2.40;;
946;SDS011;460;48.734;9.152;2023-04-28T02:48:54;7.73;;;2.67;;
946;SDS011;460;48.734;9.152;2023-04-28T02:51:20;2.70;;;2.00;;
946;SDS011;460;48.734;9.152;2023-04-28T02:53:48;2.47;;;2.27;;
946;SDS011;460;48.734;9.152;2023-04-28T02:56:15;2.20;;;2.00;;
946;SDS011;460;48.734;9.152;2023-04-28T02:58:42;3.40;;;2.73;;
946;SDS011;460;48.734;9.152;2023-04-28T03:01:09;2.57;;;2.17;;
946;SDS011;460;48.734;9.152;2023-04-28T03:03:36;2.10;;;1.90;;
946;SDS011;460;48.734;9.152;2023-04-28T03:06:06;2.37;;;2.17;;
946;SDS011;460;48.734;9.152;2023-04-28T03:08:33;4.10;;;2.80;;
946;SDS011;460;48.734;9.152;2023-04-28T03:11:00;3.20;;;2.40;;
946;SDS011;460;48.734;9.152;2023-04-28T03:13:27;2.53;;;2.30;;
946;SDS011;460;48.734;9.152;2023-04-28T03:15:55;2.00;;;1.90;;
946;SDS011;460;48.734;9.152;2023-04-28T03:18:22;3.00;;;2.40;;
946;SDS011;460;48.734;9.152;2023-04-28T03:20:49;4.23;;;2.07;;
946;SDS011;460;48.734;9.152;2023-04-28T03:23:18;3.57;;;2.30;;
946;SDS011;460;48.734;9.152;2023-04-28T03:25:45;3.17;;;2.83;;
946;SDS011;460;48.734;9.152;2023-04-28T03:28:12;2.30;;;2.10;;
946;SDS011;460;48.734;9.152;2023-04-28T03:30:40;2.17;;;2.07;;
946;SDS011;460;48.734;9.152;2023-04-28T03:33:07;2.17;;;2.00;;
946;SDS011;460;48.734;9.152;2023-04-28T03:35:34;2.47;;;2.27;;
946;SDS011;460;48.734;9.152;2023-04-28T03:38:01;2.60;;;2.10;;
946;SDS011;460;48.734;9.152;2023-04-28T03:40:29;2.63;;;2.10;;
946;SDS011;460;48.734;9.152;2023-04-28T03:42:56;2.57;;;2.17;;
946;SDS011;460;48.734;9.152;2023-04-28T03:45:23;1.60;;;1.37;;
946;SDS011;460;48.734;9.152;2023-04-28T03:47:50;2.00;;;1.90;;
946;SDS011;460;48.734;9.152;2023-04-28T03:50:17;1.77;;;1.67;;
946;SDS011;460;48.734;9.152;2023-04-28T03:52:44;1.80;;;1.70;;
946;SDS011;460;48.734;9.152;2023-04-28T03:55:11;3.03;;;1.90;;
946;SDS011;460;48.734;9.152;2023-04-28T03:57:39;2.30;;;2.07;;
946;SDS011;460;48.734;9.152;2023-04-28T04:00:06;2.50;;;2.20;;
946;SDS011;460;48.734;9.152;2023-04-28T04:02:34;2.00;;;1.80;;
946;SDS011;460;48.734;9.152;2023-04-28T04:05:01;2.80;;;2.40;;
946;SDS011;460;48.734;9.152;2023-04-28T04:07:27;2.90;;;2.70;;
946;SDS011;460;48.734;9.152;2023-04-28T04:09:54;2.80;;;2.60;;
946;SDS011;460;48.734;9.152;2023-04-28T04:12:21;2.77;;;2.20;;
946;SDS011;460;48.734;9.152;2023-04-28T04:14:49;1.37;;;1.30;;
946;SDS011;460;48.734;9.152;2023-04-28T04:17:16;4.70;;;1.70;;
946;SDS011;460;48.734;9.152;2023-04-28T04:19:43;3.33;;;3.03;;
946;SDS011;460;48.734;9.152;2023-04-28T04:22:10;1.70;;;1.60;;
946;SDS011;460;48.734;9.152;2023-04-28T04:24:37;2.70;;;2.20;;
946;SDS011;460;48.734;9.152;2023-04-28T04:27:03;1.87;;;1.77;;
946;SDS011;460;48.734;9.152;2023-04-28T04:29:30;2.03;;;1.70;;
946;SDS011;460;48.734;9.152;2023-04-28T04:31:58;1.77;;;1.67;;
946;SDS011;460;48.734;9.152;2023-04-28T04:34:25;2.80;;;1.70;;
946;SDS011;460;48.734;9.152;2023-04-28T04:36:52;1.50;;;1.40;;
946;SDS011;460;48.734;9.152;2023-04-28T04:39:19;2.40;;;1.40;;
946;SDS011;460;48.734;9.152;2023-04-28T04:41:45;2.60;;;1.43;;
946;SDS011;460;48.734;9.152;2023-04-28T04:44:12;1.70;;;1.60;;
946;SDS011;460;48.734;9.152;2023-04-28T04:46:39;1.60;;;1.50;;
946;SDS011;460;48.734;9.152;2023-04-28T04:49:07;2.40;;;2.00;;
946;SDS011;460;48.734;9.152;2023-04-28T04:51:34;2.17;;;1.87;;
946;SDS011;460;48.734;9.152;2023-04-28T04:54:01;4.43;;;1.50;;
946;SDS011;460;48.734;9.152;2023-04-28T04:56:28;1.60;;;1.50;;
946;SDS011;460;48.734;9.152;2023-04-28T04:58:55;1.70;;;1.57;;
946;SDS011;460;48.734;9.152;2023-04-28T05:01:22;2.00;;;1.90;;
946;SDS011;460;48.734;9.152;2023-04-28T05:03:49;4.90;;;2.17;;
946;SDS011;460;48.734;9.152;2023-04-28T05:06:17;2.40;;;2.20;;
946;SDS011;460;48.734;9.152;2023-04-28T05:08:44;2.60;;;1.67;;
946;SDS011;460;48.734;9.152;2023-04-28T05:11:11;2.50;;;2.20;;
946;SDS011;460;48.734;9.152;2023-04-28T05:13:38;2.73;;;2.47;;
946;SDS011;460;48.734;9.152;2023-04-28T05:16:05;3.35;;;2.20;;
946;SDS011;460;48.734;9.152;2023-04-28T05:18:32;2.33;;;2.13;;
946;SDS011;460;48.734;9.152;2023-04-28T05:20:59;2.83;;;2.20;;
946;SDS011;460;48.734;9.152;2023-04-28T05:23:27;3.20;;;2.40;;
946;SDS011;460;48.734;9.152;2023-04-28T05:25:54;2.33;;;2.20;;
946;SDS011;460;48.734;9.152;2023-04-28T05:28:21;2.57;;;1.80;;
946;SDS011;460;48.734;9.152;2023-04-28T05:30:48;3.27;;;2.13;;
946;SDS011;460;48.734;9.152;2023-04-28T05:33:15;2.70;;;2.50;;
946;SDS011;460;48.734;9.152;2023-04-28T05:35:41;1.90;;;1.80;;
946;SDS011;460;48.734;9.152;2023-04-28T05:38:08;1.53;;;1.43;;
946;SDS011;460;48.734;9.152;2023-04-28T05:40:37;2.30;;;2.00;;
946;SDS011;460;48.734;9.152;2023-04-28T05:43:03;3.50;;;2.60;;
946;SDS011;460;48.734;9.152;2023-04-28T05:45:30;1.97;;;1.77;;
946;SDS011;460;48.734;9.152;2023-04-28T05:47:57;3.63;;;2.60;;
946;SDS011;460;48.734;9.152;2023-04-28T05:50:24;2.90;;;1.50;;
946;SDS011;460;48.734;9.152;2023-04-28T05:52:51;3.00;;;2.47;;
946;SDS011;460;48.734;9.152;2023-04-28T05:55:19;2.07;;;1.87;;
946;SDS011;460;48.734;9.152;2023-04-28T05:57:47;3.30;;;3.00;;
946;SDS011;460;48.734;9.152;2023-04-28T06:00:38;4.10;;;2.00;;
946;SDS011;460;48.734;9.152;2023-04-28T06:03:24;2.47;;;2.10;;
946;SDS011;460;48.734;9.152;2023-04-28T06:09:57;2.20;;;1.73;;
946;SDS011;460;48.734;9.152;2023-04-28T06:12:49;2.73;;;2.33;;
946;SDS011;460;48.734;9.152;2023-04-28T06:15:36;2.60;;;2.40;;
946;SDS011;460;48.734;9.152;2023-04-28T06:18:23;1.50;;;1.40;;
946;SDS011;460;48.734;9.152;2023-04-28T06:35:12;5.17;;;2.30;;
946;SDS011;460;48.734;9.152;2023-04-28T06:37:39;1.83;;;1.73;;
946;SDS011;460;48.734;9.152;2023-04-28T06:40:06;3.47;;;2.80;;
946;SDS011;460;48.734;9.152;2023-04-28T06:42:34;2.17;;;2.07;;
946;SDS011;460;48.734;9.152;2023-04-28T06:45:00;2.60;;;2.30;;
946;SDS011;460;48.734;9.152;2023-04-28T06:47:30;3.40;;;2.00;;
946;SDS011;460;48.734;9.152;2023-04-28T06:49:56;3.90;;;2.97;;
946;SDS011;460;48.734;9.152;2023-04-28T06:52:25;2.20;;;1.97;;
946;SDS011;460;48.734;9.152;2023-04-28T06:54:53;6.73;;;2.33;;
946;SDS011;460;48.734;9.152;2023-04-28T06:57:20;3.07;;;1.90;;
946;SDS011;460;48.734;9.152;2023-04-28T06:59:47;3.80;;;2.70;;
946;SDS011;460;48.734;9.152;2023-04-28T07:02:14;1.80;;;1.70;;
946;SDS011;460;48.734;9.152;2023-04-28T07:04:41;3.83;;;2.00;;
946;SDS011;460;48.734;9.152;2023-04-28T07:07:07;1.90;;;1.77;;
946;SDS011;460;48.734;9.152;2023-04-28T07:09:36;2.83;;;2.50;;
946;SDS011;460;48.734;9.152;2023-04-28T07:12:02;2.03;;;1.60;;
946;SDS011;460;48.734;9.152;2023-04-28T07:14:30;2.57;;;2.10;;
946;SDS011;460;48.734;9.152;2023-04-28T07:16:58;2.90;;;2.70;;
946;SDS011;460;48.734;9.152;2023-04-28T07:19:25;1.83;;;1.73;;
946;SDS011;460;48.734;9.152;2023-04-28T07:21:51;5.60;;;2.30;;
946;SDS011;460;48.734;9.152;2023-04-28T07:24:18;2.90;;;2.60;;
946;SDS011;460;48.734;9.152;2023-04-28T07:26:48;2.80;;;2.47;;
946;SDS011;460;48.734;9.152;2023-04-28T07:29:16;2.63;;;2.10;;
946;SDS011;460;48.734;9.152;2023-04-28T07:31:43;2.20;;;1.90;;
946;SDS011;460;48.734;9.152;2023-04-28T07:34:10;2.90;;;2.57;;
946;SDS011;460;48.734;9.152;2023-04-28T07:36:37;4.03;;;2.10;;
946;SDS011;460;48.734;9.152;2023-04-28T07:39:03;4.03;;;2.17;;
946;SDS011;460;48.734;9.152;2023-04-28T07:41:34;4.53;;;1.97;;
946;SDS011;460;48.734;9.152;2023-04-28T07:44:03;2.60;;;2.40;;
946;SDS011;460;48.734;9.152;2023-04-28T07:46:32;1.67;;;1.57;;
946;SDS011;460;48.734;9.152;2023-04-28T07:48:59;2.80;;;1.93;;
946;SDS011;460;48.734;9.152;2023-04-28T07:51:26;2.30;;;2.03;;
946;SDS011;460;48.734;9.152;2023-04-28T07:53:52;2.20;;;1.90;;
946;SDS011;460;48.734;9.152;2023-04-28T07:56:19;3.37;;;1.97;;
946;SDS011;460;48.734;9.152;2023-04-28T07:58:47;1.33;;;1.23;;
946;SDS011;460;48.734;9.152;2023-04-28T08:01:15;2.23;;;2.00;;
946;SDS011;460;48.734;9.152;2023-04-28T08:03:42;1.60;;;1.50;;
946;SDS011;460;48.734;9.152;2023-04-28T08:06:09;3.30;;;1.80;;
946;SDS011;460;48.734;9.152;2023-04-28T08:08:35;2.30;;;1.80;;
946;SDS011;460;48.734;9.152;2023-04-28T08:11:02;1.67;;;1.57;;
946;SDS011;460;48.734;9.152;2023-04-28T08:13:29;1.90;;;1.80;;
946;SDS011;460;48.734;9.152;2023-04-28T08:15:56;2.33;;;1.80;;
946;SDS011;460;48.734;9.152;2023-04-28T08:18:25;2.20;;;2.03;;
946;SDS011;460;48.734;9.152;2023-04-28T08:20:52;3.00;;;2.70;;
946;SDS011;460;48.734;9.152;2023-04-28T08:23:19;3.30;;;1.90;;
946;SDS011;460;48.734;9.152;2023-04-28T08:25:46;2.07;;;1.67;;
946;SDS011;460;48.734;9.152;2023-04-28T08:28:15;2.13;;;2.00;;
946;SDS011;460;48.734;9.152;2023-04-28T08:30:42;3.10;;;2.57;;
946;SDS011;460;48.734;9.152;2023-04-28T08:33:09;2.70;;;2.43;;
946;SDS011;460;48.734;9.152;2023-04-28T08:35:37;1.83;;;1.73;;
946;SDS011;460;48.734;9.152;2023-04-28T08:38:04;1.83;;;1.60;;
946;SDS011;460;48.734;9.152;2023-04-28T08:40:37;2.93;;;1.73;;
946;SDS011;460;48.734;9.152;2023-04-28T08:43:04;1.73;;;1.63;;
946;SDS011;460;48.734;9.152;2023-04-28T08:45:32;1.50;;;1.40;;
946;SDS011;460;48.734;9.152;2023-04-28T08:48:11;3.27;;;2.30;;
946;SDS011;460;48.734;9.152;2023-04-28T08:50:47;1.80;;;1.37;;
946;SDS011;460;48.734;9.152;2023-04-28T08:53:17;2.27;;;1.93;;
946;SDS011;460;48.734;9.152;2023-04-28T08:55:50;3.17;;;1.80;;
946;SDS011;460;48.734;9.152;2023-04-28T08:58:19;2.27;;;2.07;;
946;SDS011;460;48.734;9.152;2023-04-28T09:00:47;3.03;;;2.27;;
946;SDS011;460;48.734;9.152;2023-04-28T09:03:14;2.13;;;1.83;;
946;SDS011;460;48.734;9.152;2023-04-28T09:05:41;1.60;;;1.50;;
946;SDS011;460;48.734;9.152;2023-04-28T09:08:09;2.80;;;1.57;;
946;SDS011;460;48.734;9.152;2023-04-28T09:10:36;1.77;;;1.63;;
946;SDS011;460;48.734;9.152;2023-04-28T09:13:04;1.90;;;1.77;;
946;SDS011;460;48.734;9.152;2023-04-28T09:15:31;1.73;;;1.63;;
946;SDS011;460;48.734;9.152;2023-04-28T09:17:59;2.90;;;2.33;;
946;SDS011;460;48.734;9.152;2023-04-28T09:20:27;1.90;;;1.60;;
946;SDS011;460;48.734;9.152;2023-04-28T09:22:55;2.77;;;2.37;;
946;SDS011;460;48.734;9.152;2023-04-28T09:25:38;1.83;;;1.70;;
946;SDS011;460;48.734;9.152;2023-04-28T09:28:11;1.90;;;1.80;;
946;SDS011;460;48.734;9.152;2023-04-28T09:30:45;1.70;;;1.60;;
946;SDS011;460;48.734;9.152;2023-04-28T09:33:12;2.20;;;1.60;;
946;SDS011;460;48.734;9.152;2023-04-28T09:35:40;2.80;;;2.40;;
946;SDS011;460;48.734;9.152;2023-04-28T09:38:07;2.60;;;1.77;;
946;SDS011;460;48.734;9.152;2023-04-28T09:43:24;1.70;;;1.60;;
946;SDS011;460;48.734;9.152;2023-04-28T09:45:52;4.63;;;2.03;;
946;SDS011;460;48.734;9.152;2023-04-28T09:48:26;1.50;;;1.40;;
946;SDS011;460;48.734;9.152;2023-04-28T09:50:54;1.30;;;1.20;;
946;SDS011;460;48.734;9.152;2023-04-28T09:53:23;1.70;;;1.60;;
946;SDS011;460;48.734;9.152;2023-04-28T09:55:50;1.83;;;1.73;;
946;SDS011;460;48.734;9.152;2023-04-28T09:58:20;1.63;;;1.50;;
946;SDS011;460;48.734;9.152;2023-04-28T10:00:49;1.30;;;1.20;;
946;SDS011;460;48.734;9.152;2023-04-28T10:03:17;1.73;;;1.57;;
946;SDS011;460;48.734;9.152;2023-04-28T10:05:48;1.97;;;1.77;;
946;SDS011;460;48.734;9.152;2023-04-28T10:08:17;1.57;;;1.47;;
946;SDS011;460;48.734;9.152;2023-04-28T10:10:44;1.97;;;1.60;;
946;SDS011;460;48.734;9.152;2023-04-28T10:13:13;1.87;;;1.70;;
946;SDS011;460;48.734;9.152;2023-04-28T10:15:42;1.20;;;1.20;;
946;SDS011;460;48.734;9.152;2023-04-28T10:18:10;1.27;;;1.17;;
946;SDS011;460;48.734;9.152;2023-04-28T10:20:37;1.73;;;1.40;;
946;SDS011;460;48.734;9.152;2023-04-28T10:23:15;1.17;;;1.07;;
946;SDS011;460;48.734;9.152;2023-04-28T10:25:53;1.63;;;1.50;;
946;SDS011;460;48.734;9.152;2023-04-28T10:28:22;2.30;;;1.30;;
946;SDS011;460;48.734;9.152;2023-04-28T10:33:36;1.73;;;1.63;;
946;SDS011;460;48.734;9.152;2023-04-28T10:36:04;0.70;;;0.53;;
946;SDS011;460;48.734;9.152;2023-04-28T10:38:33;1.17;;;0.90;;
946;SDS011;460;48.734;9.152;2023-04-28T10:41:00;0.40;;;0.40;;
946;SDS011;460;48.734;9.152;2023-04-28T10:43:32;0.50;;;0.40;;
946;SDS011;460;48.734;9.152;2023-04-28T10:46:13;0.63;;;0.50;;
946;SDS011;460;48.734;9.152;2023-04-28T10:48:53;0.50;;;0.50;;
946;SDS011;460;48.734;9.152;2023-04-28T10:51:30;0.60;;;0.40;;
946;SDS011;460;48.734;9.152;2023-04-28T10:59:43;0.40;;;0.40;;
946;SDS011;460;48.734;9.152;2023-04-28T11:05:15;0.30;;;0.30;;
946;SDS011;460;48.734;9.152;2023-04-28T11:11:15;0.50;;;0.50;;
946;SDS011;460;48.734;9.152;2023-04-28T11:13:50;0.60;;;0.60;;
946;SDS011;460;48.734;9.152;2023-04-28T11:16:19;0.30;;;0.30;;
946;SDS011;460;48.734;9.152;2023-04-28T11:18:51;0.50;;;0.40;;
946;SDS011;460;48.734;9.152;2023-04-28T11:21:30;0.53;;;0.50;;
946;SDS011;460;48.734;9.152;2023-04-28T11:23:58;1.03;;;0.83;;
946;SDS011;460;48.734;9.152;2023-04-28T11:26:26;0.97;;;0.83;;
946;SDS011;460;48.734;9.152;2023-04-28T11:28:54;0.60;;;0.60;;
946;SDS011;460;48.734;9.152;2023-04-28T11:31:23;0.47;;;0.40;;
946;SDS011;460;48.734;9.152;2023-04-28T11:33:52;0.97;;;0.73;;
946;SDS011;460;48.734;9.152;2023-04-28T11:36:23;0.40;;;0.40;;
946;SDS011;460;48.734;9.152;2023-04-28T11:38:59;0.43;;;0.43;;
946;SDS011;460;48.734;9.152;2023-04-28T11:41:29;0.40;;;0.40;;
946;SDS011;460;48.734;9.152;2023-04-28T11:43:56;0.53;;;0.53;;
946;SDS011;460;48.734;9.152;2023-04-28T11:46:23;1.03;;;0.70;;
946;SDS011;460;48.734;9.152;2023-04-28T11:48:58;0.70;;;0.60;;
946;SDS011;460;48.734;9.152;2023-04-28T11:51:27;0.50;;;0.50;;
946;SDS011;460;48.734;9.152;2023-04-28T11:53:59;1.37;;;1.07;;
946;SDS011;460;48.734;9.152;2023-04-28T11:56:27;0.70;;;0.70;;
946;SDS011;460;48.734;9.152;2023-04-28T11:59:05;0.97;;;0.87;;
946;SDS011;460;48.734;9.152;2023-04-28T12:01:33;0.70;;;0.70;;
946;SDS011;460;48.734;9.152;2023-04-28T12:04:08;2.00;;;1.47;;
946;SDS011;460;48.734;9.152;2023-04-28T12:06:38;0.50;;;0.50;;
946;SDS011;460;48.734;9.152;2023-04-28T12:09:14;0.83;;;0.60;;
946;SDS011;460;48.734;9.152;2023-04-28T12:11:51;0.93;;;0.50;;
946;SDS011;460;48.734;9.152;2023-04-28T12:14:21;0.40;;;0.20;;
946;SDS011;460;48.734;9.152;2023-04-28T12:16:49;0.37;;;0.33;;
946;SDS011;460;48.734;9.152;2023-04-28T12:19:16;0.30;;;0.30;;
946;SDS011;460;48.734;9.152;2023-04-28T12:21:56;0.73;;;0.53;;
946;SDS011;460;48.734;9.152;2023-04-28T12:24:24;1.00;;;0.60;;
946;SDS011;460;48.734;9.152;2023-04-28T12:26:51;0.50;;;0.30;;
946;SDS011;460;48.734;9.152;2023-04-28T12:29:34;0.30;;;0.20;;
946;SDS011;460;48.734;9.152;2023-04-28T12:32:05;0.60;;;0.40;;
946;SDS011;460;48.734;9.152;2023-04-28T12:34:33;0.43;;;0.40;;
946;SDS011;460;48.734;9.152;2023-04-28T12:37:02;0.50;;;0.20;;
946;SDS011;460;48.734;9.152;2023-04-28T12:39:29;0.30;;;0.27;;
946;SDS011;460;48.734;9.152;2023-04-28T12:41:57;0.50;;;0.43;;
946;SDS011;460;48.734;9.152;2023-04-28T12:44:24;0.33;;;0.33;;
946;SDS011;460;48.734;9.152;2023-04-28T12:46:52;0.47;;;0.47;;
946;SDS011;460;48.734;9.152;2023-04-28T12:49:19;0.50;;;0.50;;
946;SDS011;460;48.734;9.152;2023-04-28T12:51:47;0.40;;;0.30;;
946;SDS011;460;48.734;9.152;2023-04-28T12:54:15;0.60;;;0.30;;
946;SDS011;460;48.734;9.152;2023-04-28T12:56:41;0.60;;;0.50;;
946;SDS011;460;48.734;9.152;2023-04-28T12:59:08;0.50;;;0.30;;
946;SDS011;460;48.734;9.152;2023-04-28T13:01:35;0.50;;;0.40;;
946;SDS011;460;48.734;9.152;2023-04-28T13:04:03;1.33;;;0.70;;
946;SDS011;460;48.734;9.152;2023-04-28T13:06:30;1.30;;;0.73;;
946;SDS011;460;48.734;9.152;2023-04-28T13:08:57;0.97;;;0.73;;
946;SDS011;460;48.734;9.152;2023-04-28T13:11:25;1.13;;;0.47;;
946;SDS011;460;48.734;9.152;2023-04-28T13:13:52;1.63;;;0.70;;
946;SDS011;460;48.734;9.152;2023-04-28T13:16:21;0.53;;;0.50;;
946;SDS011;460;48.734;9.152;2023-04-28T13:18:53;0.60;;;0.60;;
946;SDS011;460;48.734;9.152;2023-04-28T13:21:20;0.40;;;0.40;;
946;SDS011;460;48.734;9.152;2023-04-28T13:23:47;1.00;;;0.67;;
946;SDS011;460;48.734;9.152;2023-04-28T13:26:14;0.60;;;0.37;;
946;SDS011;460;48.734;9.152;2023-04-28T13:28:45;0.40;;;0.30;;
946;SDS011;460;48.734;9.152;2023-04-28T13:31:12;0.40;;;0.40;;
946;SDS011;460;48.734;9.152;2023-04-28T13:33:39;0.40;;;0.40;;
946;SDS011;460;48.734;9.152;2023-04-28T13:36:06;0.60;;;0.60;;
946;SDS011;460;48.734;9.152;2023-04-28T13:38:33;0.40;;;0.40;;
946;SDS011;460;48.734;9.152;2023-04-28T13:41:00;0.40;;;0.40;;
946;SDS011;460;48.734;9.152;2023-04-28T13:43:27;0.30;;;0.20;;
946;SDS011;460;48.734;9.152;2023-04-28T13:45:55;0.40;;;0.23;;
946;SDS011;460;48.734;9.152;2023-04-28T13:48:22;0.40;;;0.30;;
946;SDS011;460;48.734;9.152;2023-04-28T13:50:50;0.63;;;0.37;;
946;SDS011;460;48.734;9.152;2023-04-28T13:53:17;0.40;;;0.30;;
946;SDS011;460;48.734;9.152;2023-04-28T13:55:44;0.40;;;0.40;;
946;SDS011;460;48.734;9.152;2023-04-28T13:58:10;0.50;;;0.50;;
946;SDS011;460;48.734;9.152;2023-04-28T14:00:37;0.50;;;0.50;;
946;SDS011;460;48.734;9.152;2023-04-28T14:03:05;0.40;;;0.40;;
946;SDS011;460;48.734;9.152;2023-04-28T14:05:33;0.30;;;0.27;;
946;SDS011;460;48.734;9.152;2023-04-28T14:08:00;0.77;;;0.53;;
946;SDS011;460;48.734;9.152;2023-04-28T14:10:27;0.50;;;0.33;;
946;SDS011;460;48.734;9.152;2023-04-28T14:12:54;0.30;;;0.30;;
946;SDS011;460;48.734;9.152;2023-04-28T14:15:21;0.97;;;0.60;;
946;SDS011;460;48.734;9.152;2023-04-28T14:17:48;0.40;;;0.30;;
946;SDS011;460;48.734;9.152;2023-04-28T14:20:16;0.40;;;0.40;;
946;SDS011;460;48.734;9.152;2023-04-28T14:22:43;1.17;;;0.40;;
946;SDS011;460;48.734;9.152;2023-04-28T14:25:10;0.40;;;0.30;;
946;SDS011;460;48.734;9.152;2023-04-28T14:27:37;0.40;;;0.40;;
946;SDS011;460;48.734;9.152;2023-04-28T14:30:04;0.93;;;0.80;;
946;SDS011;460;48.734;9.152;2023-04-28T14:32:32;0.57;;;0.50;;
946;SDS011;460;48.734;9.152;2023-04-28T14:34:59;0.30;;;0.30;;
946;SDS011;460;48.734;9.152;2023-04-28T14:37:30;0.50;;;0.33;;
946;SDS011;460;48.734;9.152;2023-04-28T14:39:57;0.40;;;0.40;;
946;SDS011;460;48.734;9.152;2023-04-28T14:42:26;0.30;;;0.30;;
946;SDS011;460;48.734;9.152;2023-04-28T14:44:54;0.40;;;0.20;;
946;SDS011;460;48.734;9.152;2023-04-28T14:47:21;0.57;;;0.30;;
946;SDS011;460;48.734;9.152;2023-04-28T14:49:48;0.30;;;0.20;;
946;SDS011;460;48.734;9.152;2023-04-28T14:52:17;0.50;;;0.50;;
946;SDS011;460;48.734;9.152;2023-04-28T14:54:45;0.57;;;0.47;;
946;SDS011;460;48.734;9.152;2023-04-28T14:57:12;0.40;;;0.20;;
946;SDS011;460;48.734;9.152;2023-04-28T14:59:39;0.47;;;0.47;;
946;SDS011;460;48.734;9.152;2023-04-28T15:02:06;0.30;;;0.20;;
946;SDS011;460;48.734;9.152;2023-04-28T15:04:34;0.33;;;0.33;;
946;SDS011;460;48.734;9.152;2023-04-28T15:07:01;0.50;;;0.37;;
946;SDS011;460;48.734;9.152;2023-04-28T15:09:28;0.40;;;0.40;;
946;SDS011;460;48.734;9.152;2023-04-28T15:11:56;0.30;;;0.20;;
946;SDS011;460;48.734;9.152;2023-04-28T15:14:23;0.30;;;0.20;;
946;SDS011;460;48.734;9.152;2023-04-28T15:16:50;0.40;;;0.30;;
946;SDS011;460;48.734;9.152;2023-04-28T15:19:17;0.40;;;0.30;;
946;SDS011;460;48.734;9.152;2023-04-28T15:21:44;0.30;;;0.30;;
946;SDS011;460;48.734;9.152;2023-04-28T15:24:11;0.40;;;0.40;;
946;SDS011;460;48.734;9.152;2023-04-28T15:26:39;2.80;;;1.50;;
946;SDS011;460;48.734;9.152;2023-04-28T15:29:09;0.67;;;0.60;;
946;SDS011;460;48.734;9.152;2023-04-28T15:31:36;0.60;;;0.40;;
946;SDS011;460;48.734;9.152;2023-04-28T15:34:04;0.40;;;0.23;;
946;SDS011;460;48.734;9.152;2023-04-28T15:36:30;1.07;;;0.63;;
946;SDS011;460;48.734;9.152;2023-04-28T15:39:03;0.40;;;0.30;;
946;SDS011;460;48.734;9.152;2023-04-28T15:41:30;0.30;;;0.30;;
946;SDS011;460;48.734;9.152;2023-04-28T15:43:56;0.37;;;0.27;;
946;SDS011;460;48.734;9.152;2023-04-28T15:46:25;0.30;;;0.20;;
946;SDS011;460;48.734;9.152;2023-04-28T15:48:53;0.40;;;0.30;;
946;SDS011;460;48.734;9.152;2023-04-28T15:51:20;0.50;;;0.30;;
946;SDS011;460;48.734;9.152;2023-04-28T15:53:47;0.30;;;0.30;;
946;SDS011;460;48.734;9.152;2023-04-28T15:56:14;0.30;;;0.27;;
946;SDS011;460;48.734;9.152;2023-04-28T15:58:41;0.30;;;0.20;;
946;SDS011;460;48.734;9.152;2023-04-28T16:01:08;0.67;;;0.30;;
946;SDS011;460;48.734;9.152;2023-04-28T16:03:37;0.40;;;0.37;;
946;SDS011;460;48.734;9.152;2023-04-28T16:06:04;0.40;;;0.30;;
946;SDS011;460;48.734;9.152;2023-04-28T16:08:32;0.50;;;0.50;;
946;SDS011;460;48.734;9.152;2023-04-28T16:10:59;0.40;;;0.30;;
946;SDS011;460;48.734;9.152;2023-04-28T16:13:26;0.53;;;0.40;;
946;SDS011;460;48.734;9.152;2023-04-28T16:15:56;0.37;;;0.37;;
946;SDS011;460;48.734;9.152;2023-04-28T16:18:23;0.30;;;0.30;;
946;SDS011;460;48.734;9.152;2023-04-28T16:20:52;2.40;;;0.50;;
946;SDS011;460;48.734;9.152;2023-04-28T16:23:19;0.30;;;0.30;;
946;SDS011;460;48.734;9.152;2023-04-28T16:25:46;0.50;;;0.50;;
946;SDS011;460;48.734;9.152;2023-04-28T16:28:14;0.30;;;0.30;;
946;SDS011;460;48.734;9.152;2023-04-28T16:30:41;0.47;;;0.40;;